Time,TemperatureF,DewpointF,PressureIn,WindDirection,WindDirectionDegrees,WindSpeedMPH,WindSpeedGustMPH,Humidity,HourlyPrecipIn,Conditions,Clouds,dailyrainin,SoftwareType,DateUTC
2013-07-28 00:00:00,59.9,53.4,29.82,WNW,299,0.0,4.0,79,0.00,,SKC,0.00,VWS V14.01,2013-07-28 07:00:00,
2013-07-28 00:10:00,59.8,53.6,29.81,WNW,300,0.0,2.0,80,0.00,,SKC,0.00,VWS V14.01,2013-07-28 07:10:00,
2013-07-28 00:20:00,59.7,53.5,29.81,WNW,299,2.0,2.0,80,0.00,,SKC,0.00,VWS V14.01,2013-07-28 07:20:00,
2013-07-28 00:30:00,59.5,53.3,29.81,WNW,295,0.0,4.0,80,0.00,,SKC,0.00,VWS V14.01,2013-07-28 07:30:00,
2013-07-28 00:35:00,59.4,53.6,29.81,NW,309,2.0,5.0,81,0.00,,SKC,0.00,VWS V14.01,2013-07-28 07:35:00,
2013-07-28 00:45:00,59.1,53.6,29.80,West,275,5.0,5.0,82,0.00,,SKC,0.00,VWS V14.01,2013-07-28 07:45:00,
2013-07-28 00:50:00,59.0,53.5,29.81,West,273,2.0,5.0,82,0.00,,SKC,0.00,VWS V14.01,2013-07-28 07:50:00,
2013-07-28 01:00:00,59.0,53.8,29.81,WNW,293,4.0,4.0,83,0.00,,SKC,0.00,VWS V14.01,2013-07-28 08:00:00,
2013-07-28 01:10:00,58.8,54.0,29.81,WNW,292,0.0,6.0,84,0.00,,SKC,0.00,VWS V14.01,2013-07-28 08:10:00,
2013-07-28 01:15:00,58.7,53.9,29.81,WNW,292,2.0,5.0,84,0.00,,SKC,0.00,VWS V14.01,2013-07-28 08:15:00,
2013-07-28 01:20:00,58.7,53.9,29.80,WNW,298,2.0,5.0,84,0.00,,SKC,0.00,VWS V14.01,2013-07-28 08:20:00,
2013-07-28 01:30:00,58.6,54.1,29.80,WNW,299,0.0,6.0,85,0.00,,SKC,0.00,VWS V14.01,2013-07-28 08:30:00,
2013-07-28 01:40:00,58.4,53.9,29.80,NW,305,2.0,5.0,85,0.00,,SKC,0.00,VWS V14.01,2013-07-28 08:40:00,
2013-07-28 01:45:00,58.3,53.8,29.80,WNW,288,0.0,4.0,85,0.00,,SKC,0.00,VWS V14.01,2013-07-28 08:45:00,
2013-07-28 01:50:00,58.2,54.0,29.80,WNW,288,0.0,4.0,86,0.00,,SKC,0.00,VWS V14.01,2013-07-28 08:50:00,
2013-07-28 01:55:00,58.1,53.9,29.80,WNW,292,3.0,5.0,86,0.00,,SKC,0.00,VWS V14.01,2013-07-28 08:55:00,
2013-07-28 02:00:00,58.1,53.9,29.80,NW,318,1.0,6.0,86,0.00,,SKC,0.00,VWS V14.01,2013-07-28 09:00:00,
2013-07-28 02:05:00,58.0,53.8,29.80,WNW,288,2.0,5.0,86,0.00,,SKC,0.00,VWS V14.01,2013-07-28 09:05:00,
2013-07-28 02:10:00,58.0,54.2,29.80,West,275,5.0,7.0,87,0.00,,SKC,0.00,VWS V14.01,2013-07-28 09:10:00,
2013-07-28 02:15:00,57.9,54.1,29.80,WNW,300,4.0,5.0,87,0.00,,SKC,0.00,VWS V14.01,2013-07-28 09:15:00,
2013-07-28 02:20:00,57.8,54.0,29.80,WNW,282,2.0,7.0,87,0.00,,SKC,0.00,VWS V14.01,2013-07-28 09:20:00,
2013-07-28 02:25:00,57.7,53.9,29.80,SW,232,0.0,6.0,87,0.00,,SKC,0.00,VWS V14.01,2013-07-28 09:25:00,
2013-07-28 02:35:00,57.5,53.7,29.79,WNW,287,2.0,10.0,87,0.00,,SKC,0.00,VWS V14.01,2013-07-28 09:35:00,
2013-07-28 02:45:00,57.3,53.8,29.79,West,281,1.0,5.0,88,0.00,,SKC,0.00,VWS V14.01,2013-07-28 09:45:00,
2013-07-28 02:55:00,57.1,53.6,29.79,WNW,286,2.0,5.0,88,0.00,,SKC,0.00,VWS V14.01,2013-07-28 09:55:00,
2013-07-28 03:05:00,56.9,53.4,29.79,WNW,284,2.0,5.0,88,0.00,,SKC,0.00,VWS V14.01,2013-07-28 10:05:00,
2013-07-28 03:15:00,56.8,53.6,29.79,West,269,2.0,6.0,89,0.00,,SKC,0.00,VWS V14.01,2013-07-28 10:15:00,
2013-07-28 03:20:00,56.7,53.5,29.79,West,269,4.0,5.0,89,0.00,,SKC,0.00,VWS V14.01,2013-07-28 10:20:00,
2013-07-28 03:25:00,56.6,53.4,29.78,West,269,4.0,4.0,89,0.00,,SKC,0.00,VWS V14.01,2013-07-28 10:25:00,
2013-07-28 03:30:00,56.5,53.3,29.78,West,280,2.0,5.0,89,0.00,,SKC,0.00,VWS V14.01,2013-07-28 10:30:00,
2013-07-28 03:35:00,56.4,53.2,29.78,NW,305,2.0,4.0,89,0.00,,SKC,0.00,VWS V14.01,2013-07-28 10:35:00,
2013-07-28 03:40:00,56.3,53.1,29.78,WNW,283,0.0,5.0,89,0.00,,SKC,0.00,VWS V14.01,2013-07-28 10:40:00,
2013-07-28 03:50:00,56.3,53.4,29.78,West,276,1.0,4.0,90,0.00,,SKC,0.00,VWS V14.01,2013-07-28 10:50:00,
2013-07-28 03:55:00,56.2,53.3,29.78,WNW,290,1.0,4.0,90,0.00,,SKC,0.00,VWS V14.01,2013-07-28 10:55:00,
2013-07-28 04:00:00,56.2,53.3,29.78,NW,323,1.0,5.0,90,0.00,,SKC,0.00,VWS V14.01,2013-07-28 11:00:00,
2013-07-28 04:05:00,56.2,53.3,29.78,West,281,1.0,5.0,90,0.00,,SKC,0.00,VWS V14.01,2013-07-28 11:05:00,
2013-07-28 04:15:00,56.1,53.2,29.78,WNW,296,1.0,6.0,90,0.00,,SKC,0.00,VWS V14.01,2013-07-28 11:15:00,
2013-07-28 04:20:00,56.1,53.2,29.78,WNW,296,1.0,3.0,90,0.00,,SKC,0.00,VWS V14.01,2013-07-28 11:20:00,
2013-07-28 04:25:00,56.0,53.1,29.78,WNW,298,0.0,5.0,90,0.00,,SKC,0.00,VWS V14.01,2013-07-28 11:25:00,
2013-07-28 04:30:00,55.9,53.0,29.78,WNW,296,2.0,7.0,90,0.00,,SKC,0.00,VWS V14.01,2013-07-28 11:30:00,
2013-07-28 04:40:00,55.8,52.9,29.78,WSW,248,2.0,5.0,90,0.00,,SKC,0.00,VWS V14.01,2013-07-28 11:40:00,
2013-07-28 04:45:00,55.8,53.2,29.78,WNW,284,2.0,4.0,91,0.00,,SKC,0.00,VWS V14.01,2013-07-28 11:45:00,
2013-07-28 04:50:00,55.8,53.2,29.78,WNW,286,2.0,4.0,91,0.00,,SKC,0.00,VWS V14.01,2013-07-28 11:50:00,
2013-07-28 04:55:00,55.8,53.2,29.78,WNW,289,0.0,4.0,91,0.00,,SKC,0.00,VWS V14.01,2013-07-28 11:55:00,
2013-07-28 05:00:00,55.8,53.2,29.78,NW,307,1.0,6.0,91,0.00,,SKC,0.00,VWS V14.01,2013-07-28 12:00:00,
2013-07-28 05:10:00,55.7,53.1,29.77,SW,234,0.0,5.0,91,0.00,,SKC,0.00,VWS V14.01,2013-07-28 12:10:00,
2013-07-28 05:20:00,55.6,53.0,29.78,West,275,0.0,5.0,91,0.00,,SKC,0.00,VWS V14.01,2013-07-28 12:20:00,
2013-07-28 05:25:00,55.5,52.9,29.78,WNW,295,4.0,5.0,91,0.00,,SKC,0.00,VWS V14.01,2013-07-28 12:25:00,
2013-07-28 05:30:00,55.5,53.2,29.78,West,265,1.0,4.0,92,0.00,,SKC,0.00,VWS V14.01,2013-07-28 12:30:00,
2013-07-28 05:40:00,55.5,53.2,29.78,WNW,291,0.0,4.0,92,0.00,,SKC,0.00,VWS V14.01,2013-07-28 12:40:00,
2013-07-28 05:45:00,55.4,53.1,29.78,WNW,289,0.0,5.0,92,0.00,,SKC,0.00,VWS V14.01,2013-07-28 12:45:00,
2013-07-28 06:00:00,55.5,53.2,29.78,West,280,1.0,5.0,92,0.00,,SKC,0.00,VWS V14.01,2013-07-28 13:00:00,
2013-07-28 06:05:00,55.5,53.2,29.79,West,281,2.0,5.0,92,0.00,,SKC,0.00,VWS V14.01,2013-07-28 13:05:00,
2013-07-28 06:10:00,55.5,53.2,29.79,NNW,328,0.0,6.0,92,0.00,,SKC,0.00,VWS V14.01,2013-07-28 13:10:00,
2013-07-28 06:15:00,55.6,53.3,29.79,West,276,0.0,7.0,92,0.00,,SKC,0.00,VWS V14.01,2013-07-28 13:15:00,
2013-07-28 06:20:00,55.6,53.3,29.79,West,277,4.0,5.0,92,0.00,,SKC,0.00,VWS V14.01,2013-07-28 13:20:00,
2013-07-28 06:25:00,55.6,53.3,29.79,WNW,282,2.0,6.0,92,0.00,,SKC,0.00,VWS V14.01,2013-07-28 13:25:00,
2013-07-28 06:30:00,55.7,53.7,29.79,WNW,290,4.0,5.0,93,0.00,,SKC,0.00,VWS V14.01,2013-07-28 13:30:00,
2013-07-28 06:35:00,55.7,53.7,29.80,WNW,282,1.0,6.0,93,0.00,,SKC,0.00,VWS V14.01,2013-07-28 13:35:00,
2013-07-28 06:40:00,55.8,53.8,29.80,WNW,292,0.0,5.0,93,0.00,,SKC,0.00,VWS V14.01,2013-07-28 13:40:00,
2013-07-28 06:50:00,55.9,53.9,29.80,WNW,284,2.0,6.0,93,0.00,,SKC,0.00,VWS V14.01,2013-07-28 13:50:00,
2013-07-28 06:55:00,56.0,53.7,29.80,West,271,0.0,5.0,92,0.00,,SKC,0.00,VWS V14.01,2013-07-28 13:55:00,
2013-07-28 07:00:00,56.1,53.8,29.80,NW,306,1.0,6.0,92,0.00,,SKC,0.00,VWS V14.01,2013-07-28 14:00:00,
2013-07-28 07:10:00,56.3,54.0,29.81,West,276,5.0,5.0,92,0.00,,SKC,0.00,VWS V14.01,2013-07-28 14:10:00,
2013-07-28 07:15:00,56.4,54.1,29.81,West,279,5.0,7.0,92,0.00,,SKC,0.00,VWS V14.01,2013-07-28 14:15:00,
2013-07-28 07:25:00,56.6,54.3,29.81,WSW,238,1.0,6.0,92,0.00,,SKC,0.00,VWS V14.01,2013-07-28 14:25:00,
2013-07-28 07:30:00,56.7,54.4,29.81,NW,311,1.0,4.0,92,0.00,,SKC,0.00,VWS V14.01,2013-07-28 14:30:00,
2013-07-28 07:40:00,56.9,54.3,29.81,West,263,2.0,7.0,91,0.00,,SKC,0.00,VWS V14.01,2013-07-28 14:40:00,
2013-07-28 07:45:00,57.1,54.5,29.81,West,259,0.0,6.0,91,0.00,,SKC,0.00,VWS V14.01,2013-07-28 14:45:00,
2013-07-28 07:55:00,57.4,54.8,29.82,WNW,292,3.0,7.0,91,0.00,,SKC,0.00,VWS V14.01,2013-07-28 14:55:00,
2013-07-28 08:00:00,57.5,54.6,29.82,West,264,0.0,6.0,90,0.00,,SKC,0.00,VWS V14.01,2013-07-28 15:00:00,
2013-07-28 08:10:00,57.8,54.9,29.82,NW,310,1.0,9.0,90,0.00,,SKC,0.00,VWS V14.01,2013-07-28 15:10:00,
2013-07-28 08:15:00,58.1,54.9,29.82,WNW,283,0.0,10.0,89,0.00,,SKC,0.00,VWS V14.01,2013-07-28 15:15:00,
2013-07-28 08:20:00,58.4,55.2,29.82,WNW,285,5.0,5.0,89,0.00,,SKC,0.00,VWS V14.01,2013-07-28 15:20:00,
2013-07-28 08:25:00,58.6,55.1,29.82,WNW,300,1.0,11.0,88,0.00,,SKC,0.00,VWS V14.01,2013-07-28 15:25:00,
2013-07-28 08:30:00,59.0,55.5,29.82,NW,318,0.0,6.0,88,0.00,,SKC,0.00,VWS V14.01,2013-07-28 15:30:00,
2013-07-28 08:35:00,59.0,55.1,29.82,WSW,251,2.0,8.0,87,0.00,,SKC,0.00,VWS V14.01,2013-07-28 15:35:00,
2013-07-28 08:40:00,59.0,55.1,29.82,West,265,0.0,7.0,87,0.00,,SKC,0.00,VWS V14.01,2013-07-28 15:40:00,
2013-07-28 08:45:00,59.3,55.4,29.82,SW,236,0.0,8.0,87,0.00,,SKC,0.00,VWS V14.01,2013-07-28 15:45:00,
2013-07-28 08:50:00,59.5,55.3,29.82,NW,304,3.0,7.0,86,0.00,,SKC,0.00,VWS V14.01,2013-07-28 15:50:00,
2013-07-28 09:00:00,60.0,55.5,29.82,WNW,294,5.0,7.0,85,0.00,,SKC,0.00,VWS V14.01,2013-07-28 16:00:00,
2013-07-28 09:05:00,60.2,55.7,29.82,NW,313,4.0,10.0,85,0.00,,SKC,0.00,VWS V14.01,2013-07-28 16:05:00,
2013-07-28 09:15:00,60.6,55.8,29.82,WNW,302,1.0,7.0,84,0.00,,SKC,0.00,VWS V14.01,2013-07-28 16:15:00,
2013-07-28 09:20:00,60.9,55.7,29.82,NNW,333,2.0,9.0,83,0.00,,SKC,0.00,VWS V14.01,2013-07-28 16:20:00,
2013-07-28 09:25:00,61.1,55.9,29.82,SSW,202,2.0,9.0,83,0.00,,SKC,0.00,VWS V14.01,2013-07-28 16:25:00,
2013-07-28 09:30:00,61.4,56.2,29.82,WNW,300,2.0,7.0,83,0.00,,SKC,0.00,VWS V14.01,2013-07-28 16:30:00,
2013-07-28 09:35:00,61.8,56.2,29.82,WNW,294,1.0,6.0,82,0.00,,SKC,0.00,VWS V14.01,2013-07-28 16:35:00,
2013-07-28 09:40:00,62.2,56.3,29.82,NW,315,3.0,8.0,81,0.00,,SKC,0.00,VWS V14.01,2013-07-28 16:40:00,
2013-07-28 09:45:00,62.6,56.3,29.81,West,269,0.0,4.0,80,0.00,,SKC,0.00,VWS V14.01,2013-07-28 16:45:00,
2013-07-28 09:50:00,63.3,57.0,29.81,NW,317,8.0,8.0,80,0.00,,SKC,0.00,VWS V14.01,2013-07-28 16:50:00,
2013-07-28 09:55:00,64.2,57.2,29.82,NNW,337,2.0,8.0,78,0.00,,SKC,0.00,VWS V14.01,2013-07-28 16:55:00,
2013-07-28 10:00:00,65.0,57.6,29.81,NW,311,4.0,8.0,77,0.00,,SKC,0.00,VWS V14.01,2013-07-28 17:00:00,
2013-07-28 10:05:00,65.6,57.5,29.82,WNW,300,2.0,7.0,75,0.00,,SKC,0.00,VWS V14.01,2013-07-28 17:05:00,
2013-07-28 10:10:00,66.2,57.7,29.82,SW,219,0.0,7.0,74,0.00,,SKC,0.00,VWS V14.01,2013-07-28 17:10:00,
2013-07-28 10:15:00,66.7,57.8,29.81,WSW,246,1.0,10.0,73,0.00,,SKC,0.00,VWS V14.01,2013-07-28 17:15:00,
2013-07-28 10:20:00,67.2,57.9,29.81,West,281,5.0,8.0,72,0.00,,SKC,0.00,VWS V14.01,2013-07-28 17:20:00,
2013-07-28 10:30:00,68.5,58.3,29.82,SW,219,0.0,8.0,70,0.00,,SKC,0.00,VWS V14.01,2013-07-28 17:30:00,
2013-07-28 10:35:00,69.5,58.5,29.81,South,183,0.0,9.0,68,0.00,,SKC,0.00,VWS V14.01,2013-07-28 17:35:00,
2013-07-28 10:45:00,70.6,58.7,29.82,WSW,244,5.0,6.0,66,0.00,,SKC,0.00,VWS V14.01,2013-07-28 17:45:00,
2013-07-28 10:55:00,71.2,58.8,29.81,WSW,237,0.0,8.0,65,0.00,,SKC,0.00,VWS V14.01,2013-07-28 17:55:00,
2013-07-28 11:00:00,71.9,58.6,29.81,West,261,4.0,6.0,63,0.00,,SKC,0.00,VWS V14.01,2013-07-28 18:00:00,
2013-07-28 11:05:00,72.2,58.5,29.81,WNW,288,1.0,6.0,62,0.00,,SKC,0.00,VWS V14.01,2013-07-28 18:05:00,
2013-07-28 11:10:00,72.3,58.6,29.81,WNW,284,5.0,6.0,62,0.00,,SKC,0.00,VWS V14.01,2013-07-28 18:10:00,
2013-07-28 11:15:00,72.9,58.7,29.81,SSE,156,3.0,5.0,61,0.00,,SKC,0.00,VWS V14.01,2013-07-28 18:15:00,
2013-07-28 11:20:00,73.5,58.8,29.81,NW,317,1.0,5.0,60,0.00,,SKC,0.00,VWS V14.01,2013-07-28 18:20:00,
2013-07-28 11:25:00,73.7,59.0,29.81,SW,236,0.0,8.0,60,0.00,,SKC,0.00,VWS V14.01,2013-07-28 18:25:00,
2013-07-28 11:30:00,74.4,59.2,29.81,WSW,250,0.0,5.0,59,0.00,,SKC,0.00,VWS V14.01,2013-07-28 18:30:00,
2013-07-28 11:40:00,75.1,59.3,29.81,WNW,300,5.0,7.0,58,0.00,,SKC,0.00,VWS V14.01,2013-07-28 18:40:00,
2013-07-28 12:00:00,76.6,59.2,29.80,WSW,257,1.0,6.0,55,0.00,,SKC,0.00,VWS V14.01,2013-07-28 19:00:00,
2013-07-28 12:05:00,77.3,59.4,29.80,WSW,238,0.0,4.0,54,0.00,,SKC,0.00,VWS V14.01,2013-07-28 19:05:00,
2013-07-28 12:10:00,77.8,59.8,29.80,SW,222,0.0,5.0,54,0.00,,SKC,0.00,VWS V14.01,2013-07-28 19:10:00,
2013-07-28 12:20:00,78.4,59.3,29.79,WNW,292,1.0,7.0,52,0.00,,SKC,0.00,VWS V14.01,2013-07-28 19:20:00,
2013-07-28 12:25:00,78.9,59.8,29.80,SSW,207,1.0,3.0,52,0.00,,SKC,0.00,VWS V14.01,2013-07-28 19:25:00,
2013-07-28 12:30:00,79.1,60.0,29.79,WSW,242,5.0,7.0,52,0.00,,SKC,0.00,VWS V14.01,2013-07-28 19:30:00,
2013-07-28 12:35:00,79.3,60.2,29.79,SW,235,3.0,10.0,52,0.00,,SKC,0.00,VWS V14.01,2013-07-28 19:35:00,
2013-07-28 12:40:00,79.6,59.9,29.79,South,172,6.0,7.0,51,0.00,,SKC,0.00,VWS V14.01,2013-07-28 19:40:00,
2013-07-28 12:45:00,79.4,59.7,29.79,SSE,163,4.0,6.0,51,0.00,,SKC,0.00,VWS V14.01,2013-07-28 19:45:00,
2013-07-28 12:50:00,79.6,59.9,29.79,SW,225,3.0,6.0,51,0.00,,SKC,0.00,VWS V14.01,2013-07-28 19:50:00,
2013-07-28 12:55:00,79.4,59.2,29.79,NW,315,2.0,9.0,50,0.00,,SKC,0.00,VWS V14.01,2013-07-28 19:55:00,
2013-07-28 13:00:00,79.8,60.1,29.79,WSW,244,5.0,8.0,51,0.00,,SKC,0.00,VWS V14.01,2013-07-28 20:00:00,
2013-07-28 13:05:00,80.3,60.0,29.79,South,178,2.0,8.0,50,0.00,,SKC,0.00,VWS V14.01,2013-07-28 20:05:00,
2013-07-28 13:10:00,80.5,59.0,29.79,South,173,0.0,7.0,48,0.00,,SKC,0.00,VWS V14.01,2013-07-28 20:10:00,
2013-07-28 13:15:00,79.8,58.4,29.79,WSW,250,1.0,6.0,48,0.00,,SKC,0.00,VWS V14.01,2013-07-28 20:15:00,
2013-07-28 13:20:00,80.0,59.1,29.78,South,173,0.0,6.0,49,0.00,,SKC,0.00,VWS V14.01,2013-07-28 20:20:00,
2013-07-28 13:25:00,80.4,58.9,29.78,WNW,282,3.0,7.0,48,0.00,,SKC,0.00,VWS V14.01,2013-07-28 20:25:00,
2013-07-28 13:30:00,80.1,58.7,29.78,South,176,1.0,9.0,48,0.00,,SKC,0.00,VWS V14.01,2013-07-28 20:30:00,
2013-07-28 13:35:00,80.0,58.6,29.78,SSW,198,0.0,7.0,48,0.00,,SKC,0.00,VWS V14.01,2013-07-28 20:35:00,
2013-07-28 13:40:00,80.0,59.1,29.78,WSW,258,0.0,8.0,49,0.00,,SKC,0.00,VWS V14.01,2013-07-28 20:40:00,
2013-07-28 13:45:00,80.4,58.3,29.78,South,171,0.0,6.0,47,0.00,,SKC,0.00,VWS V14.01,2013-07-28 20:45:00,
2013-07-28 13:50:00,80.7,59.2,29.78,WSW,251,0.0,6.0,48,0.00,,SKC,0.00,VWS V14.01,2013-07-28 20:50:00,
2013-07-28 14:00:00,80.7,58.6,29.78,SW,229,2.0,11.0,47,0.00,,SKC,0.00,VWS V14.01,2013-07-28 21:00:00,
2013-07-28 14:05:00,80.7,58.6,29.78,NW,309,4.0,10.0,47,0.00,,SKC,0.00,VWS V14.01,2013-07-28 21:05:00,
2013-07-28 14:10:00,80.9,58.8,29.78,NNE,26,2.0,10.0,47,0.00,,SKC,0.00,VWS V14.01,2013-07-28 21:10:00,
2013-07-28 14:15:00,80.9,57.6,29.77,SSW,202,0.0,7.0,45,0.00,,SKC,0.00,VWS V14.01,2013-07-28 21:15:00,
2013-07-28 14:20:00,80.2,57.6,29.77,South,189,0.0,8.0,46,0.00,,SKC,0.00,VWS V14.01,2013-07-28 21:20:00,
2013-07-28 14:25:00,80.0,58.0,29.77,WNW,300,4.0,7.0,47,0.00,,SKC,0.00,VWS V14.01,2013-07-28 21:25:00,
2013-07-28 14:30:00,80.4,57.8,29.77,North,350,0.0,10.0,46,0.00,,SKC,0.00,VWS V14.01,2013-07-28 21:30:00,
2013-07-28 14:35:00,80.5,57.2,29.77,South,181,0.0,9.0,45,0.00,,SKC,0.00,VWS V14.01,2013-07-28 21:35:00,
2013-07-28 14:45:00,80.4,57.1,29.77,SSE,167,0.0,8.0,45,0.00,,SKC,0.00,VWS V14.01,2013-07-28 21:45:00,
2013-07-28 14:50:00,80.8,57.5,29.77,SW,234,2.0,9.0,45,0.00,,SKC,0.00,VWS V14.01,2013-07-28 21:50:00,
2013-07-28 14:55:00,81.2,57.9,29.76,SSW,196,1.0,7.0,45,0.00,,SKC,0.00,VWS V14.01,2013-07-28 21:55:00,
2013-07-28 15:00:00,80.9,57.6,29.76,South,177,2.0,9.0,45,0.00,,SKC,0.00,VWS V14.01,2013-07-28 22:00:00,
2013-07-28 15:05:00,80.7,56.8,29.76,SW,227,2.0,7.0,44,0.00,,SKC,0.00,VWS V14.01,2013-07-28 22:05:00,
2013-07-28 15:10:00,80.8,57.5,29.76,SW,236,4.0,7.0,45,0.00,,SKC,0.00,VWS V14.01,2013-07-28 22:10:00,
2013-07-28 15:15:00,80.8,57.5,29.76,West,275,1.0,9.0,45,0.00,,SKC,0.00,VWS V14.01,2013-07-28 22:15:00,
2013-07-28 15:20:00,80.8,57.5,29.76,South,181,0.0,8.0,45,0.00,,SKC,0.00,VWS V14.01,2013-07-28 22:20:00,
2013-07-28 15:25:00,81.3,56.7,29.76,NNW,335,1.0,8.0,43,0.00,,SKC,0.00,VWS V14.01,2013-07-28 22:25:00,
2013-07-28 15:30:00,81.9,57.9,29.75,SSW,211,6.0,6.0,44,0.00,,SKC,0.00,VWS V14.01,2013-07-28 22:30:00,
2013-07-28 15:35:00,82.1,57.4,29.75,South,172,4.0,6.0,43,0.00,,SKC,0.00,VWS V14.01,2013-07-28 22:35:00,
2013-07-28 15:45:00,81.9,57.2,29.75,SW,216,1.0,7.0,43,0.00,,SKC,0.00,VWS V14.01,2013-07-28 22:45:00,
2013-07-28 15:50:00,81.7,57.0,29.75,SW,234,2.0,11.0,43,0.00,,SKC,0.00,VWS V14.01,2013-07-28 22:50:00,
2013-07-28 15:55:00,81.7,57.7,29.75,West,277,6.0,9.0,44,0.00,,SKC,0.00,VWS V14.01,2013-07-28 22:55:00,
2013-07-28 16:00:00,81.4,57.4,29.75,SSW,204,2.0,8.0,44,0.00,,SKC,0.00,VWS V14.01,2013-07-28 23:00:00,
2013-07-28 16:05:00,81.0,57.7,29.75,NW,319,6.0,8.0,45,0.00,,SKC,0.00,VWS V14.01,2013-07-28 23:05:00,
2013-07-28 16:10:00,80.8,58.1,29.75,South,173,5.0,8.0,46,0.00,,SKC,0.00,VWS V14.01,2013-07-28 23:10:00,
2013-07-28 16:15:00,80.4,57.1,29.74,West,265,5.0,12.0,45,0.00,,SKC,0.00,VWS V14.01,2013-07-28 23:15:00,
2013-07-28 16:20:00,80.3,57.7,29.74,South,178,3.0,7.0,46,0.00,,SKC,0.00,VWS V14.01,2013-07-28 23:20:00,
2013-07-28 16:30:00,80.5,57.2,29.74,South,173,1.0,9.0,45,0.00,,SKC,0.00,VWS V14.01,2013-07-28 23:30:00,
2013-07-28 16:35:00,80.9,57.0,29.73,South,175,1.0,9.0,44,0.00,,SKC,0.00,VWS V14.01,2013-07-28 23:35:00,
2013-07-28 16:40:00,80.7,56.8,29.74,West,259,9.0,9.0,44,0.00,,SKC,0.00,VWS V14.01,2013-07-28 23:40:00,
2013-07-28 16:45:00,80.2,57.0,29.73,SE,143,0.0,9.0,45,0.00,,SKC,0.00,VWS V14.01,2013-07-28 23:45:00,
2013-07-28 16:50:00,80.0,56.8,29.73,SSE,154,0.0,8.0,45,0.00,,SKC,0.00,VWS V14.01,2013-07-28 23:50:00,
2013-07-28 16:55:00,79.8,57.2,29.73,SSE,167,4.0,10.0,46,0.00,,SKC,0.00,VWS V14.01,2013-07-28 23:55:00,
2013-07-28 17:00:00,79.5,56.9,29.73,SW,224,0.0,6.0,46,0.00,,SKC,0.00,VWS V14.01,2013-07-29 00:00:00,
2013-07-28 17:10:00,79.0,57.1,29.74,SSW,198,0.0,6.0,47,0.00,,SKC,0.00,VWS V14.01,2013-07-29 00:10:00,
2013-07-28 17:15:00,79.3,57.3,29.74,SSW,203,1.0,4.0,47,0.00,,SKC,0.00,VWS V14.01,2013-07-29 00:15:00,
2013-07-28 17:20:00,79.8,57.2,29.74,WSW,245,4.0,11.0,46,0.00,,SKC,0.00,VWS V14.01,2013-07-29 00:20:00,
2013-07-28 17:25:00,79.8,57.8,29.74,West,281,6.0,9.0,47,0.00,,SKC,0.00,VWS V14.01,2013-07-29 00:25:00,
2013-07-28 17:30:00,79.6,57.6,29.73,NW,320,3.0,7.0,47,0.00,,SKC,0.00,VWS V14.01,2013-07-29 00:30:00,
2013-07-28 17:35:00,79.0,57.1,29.74,SW,229,1.0,9.0,47,0.00,,SKC,0.00,VWS V14.01,2013-07-29 00:35:00,
2013-07-28 17:40:00,78.7,57.4,29.74,South,169,1.0,7.0,48,0.00,,SKC,0.00,VWS V14.01,2013-07-29 00:40:00,
2013-07-28 17:45:00,78.4,57.7,29.74,West,277,0.0,9.0,49,0.00,,SKC,0.00,VWS V14.01,2013-07-29 00:45:00,
2013-07-28 17:50:00,77.9,57.2,29.74,West,275,1.0,7.0,49,0.00,,SKC,0.00,VWS V14.01,2013-07-29 00:50:00,
2013-07-28 17:55:00,77.8,57.1,29.74,WSW,252,1.0,10.0,49,0.00,,SKC,0.00,VWS V14.01,2013-07-29 00:55:00,
2013-07-28 18:00:00,77.8,57.1,29.73,WSW,249,1.0,6.0,49,0.00,,SKC,0.00,VWS V14.01,2013-07-29 01:00:00,
2013-07-28 18:05:00,77.6,57.0,29.73,West,269,1.0,6.0,49,0.00,,SKC,0.00,VWS V14.01,2013-07-29 01:05:00,
2013-07-28 18:10:00,77.3,56.7,29.74,West,277,5.0,10.0,49,0.00,,SKC,0.00,VWS V14.01,2013-07-29 01:10:00,
2013-07-28 18:15:00,76.6,56.6,29.74,SSW,206,7.0,7.0,50,0.00,,SKC,0.00,VWS V14.01,2013-07-29 01:15:00,
2013-07-28 18:20:00,75.9,56.5,29.74,WNW,295,2.0,7.0,51,0.00,,SKC,0.00,VWS V14.01,2013-07-29 01:20:00,
2013-07-28 18:25:00,75.0,56.7,29.74,WSW,253,4.0,6.0,53,0.00,,SKC,0.00,VWS V14.01,2013-07-29 01:25:00,
2013-07-28 18:30:00,74.2,56.0,29.74,WNW,291,3.0,7.0,53,0.00,,SKC,0.00,VWS V14.01,2013-07-29 01:30:00,
2013-07-28 18:35:00,73.0,55.4,29.74,WSW,254,5.0,12.0,54,0.00,,SKC,0.00,VWS V14.01,2013-07-29 01:35:00,
2013-07-28 18:40:00,72.2,55.7,29.74,SE,124,3.0,10.0,56,0.00,,SKC,0.00,VWS V14.01,2013-07-29 01:40:00,
2013-07-28 18:45:00,71.8,55.8,29.74,SSE,150,1.0,6.0,57,0.00,,SKC,0.00,VWS V14.01,2013-07-29 01:45:00,
2013-07-28 18:50:00,71.3,55.3,29.74,SW,226,4.0,8.0,57,0.00,,SKC,0.00,VWS V14.01,2013-07-29 01:50:00,
2013-07-28 18:55:00,70.8,55.3,29.73,WSW,240,1.0,7.0,58,0.00,,SKC,0.00,VWS V14.01,2013-07-29 01:55:00,
2013-07-28 19:00:00,70.3,55.3,29.73,WSW,250,2.0,7.0,59,0.00,,SKC,0.00,VWS V14.01,2013-07-29 02:00:00,
2013-07-28 19:05:00,69.9,55.4,29.74,West,277,0.0,7.0,60,0.00,,SKC,0.00,VWS V14.01,2013-07-29 02:05:00,
2013-07-28 19:10:00,69.3,54.8,29.74,WSW,237,2.0,11.0,60,0.00,,SKC,0.00,VWS V14.01,2013-07-29 02:10:00,
2013-07-28 19:15:00,68.6,54.6,29.74,WNW,290,2.0,10.0,61,0.00,,SKC,0.00,VWS V14.01,2013-07-29 02:15:00,
2013-07-28 19:20:00,67.9,54.4,29.74,NNW,341,0.0,7.0,62,0.00,,SKC,0.00,VWS V14.01,2013-07-29 02:20:00,
2013-07-28 19:30:00,66.3,54.2,29.75,NNW,342,5.0,9.0,65,0.00,,SKC,0.00,VWS V14.01,2013-07-29 02:30:00,
2013-07-28 19:35:00,65.6,54.0,29.75,NW,321,2.0,9.0,66,0.00,,SKC,0.00,VWS V14.01,2013-07-29 02:35:00,
2013-07-28 19:40:00,64.9,53.7,29.75,NW,315,0.0,7.0,67,0.00,,SKC,0.00,VWS V14.01,2013-07-29 02:40:00,
2013-07-28 19:45:00,64.3,53.9,29.75,NW,306,2.0,8.0,69,0.00,,SKC,0.00,VWS V14.01,2013-07-29 02:45:00,
2013-07-28 19:50:00,63.7,53.3,29.75,NW,317,1.0,6.0,69,0.00,,SKC,0.00,VWS V14.01,2013-07-29 02:50:00,
2013-07-28 19:55:00,63.4,53.5,29.75,WNW,299,4.0,6.0,70,0.00,,SKC,0.00,VWS V14.01,2013-07-29 02:55:00,
2013-07-28 20:00:00,63.2,53.3,29.76,NNW,342,4.0,5.0,70,0.00,,SKC,0.00,VWS V14.01,2013-07-29 03:00:00,
2013-07-28 20:05:00,62.9,53.4,29.75,NW,323,0.0,5.0,71,0.00,,SKC,0.00,VWS V14.01,2013-07-29 03:05:00,
2013-07-28 20:10:00,62.6,53.1,29.75,WNW,283,0.0,5.0,71,0.00,,SKC,0.00,VWS V14.01,2013-07-29 03:10:00,
2013-07-28 20:15:00,62.1,53.0,29.75,North,9,5.0,7.0,72,0.00,,SKC,0.00,VWS V14.01,2013-07-29 03:15:00,
2013-07-28 20:20:00,61.7,52.6,29.75,WNW,284,2.0,5.0,72,0.00,,SKC,0.00,VWS V14.01,2013-07-29 03:20:00,
2013-07-28 20:25:00,61.3,52.6,29.75,West,260,0.0,6.0,73,0.00,,SKC,0.00,VWS V14.01,2013-07-29 03:25:00,
2013-07-28 20:35:00,60.6,52.6,29.76,West,266,6.0,6.0,75,0.00,,SKC,0.00,VWS V14.01,2013-07-29 03:35:00,
2013-07-28 20:45:00,59.9,52.3,29.76,WNW,284,3.0,9.0,76,0.00,,SKC,0.00,VWS V14.01,2013-07-29 03:45:00,
2013-07-28 20:50:00,59.6,52.4,29.76,WSW,253,0.0,6.0,77,0.00,,SKC,0.00,VWS V14.01,2013-07-29 03:50:00,
2013-07-28 20:55:00,59.2,52.0,29.76,West,274,4.0,9.0,77,0.00,,SKC,0.00,VWS V14.01,2013-07-29 03:55:00,
2013-07-28 21:00:00,59.0,52.2,29.76,West,268,2.0,8.0,78,0.00,,SKC,0.00,VWS V14.01,2013-07-29 04:00:00,
2013-07-28 21:05:00,58.9,52.1,29.76,West,268,2.0,10.0,78,0.00,,SKC,0.00,VWS V14.01,2013-07-29 04:05:00,
2013-07-28 21:10:00,58.7,52.2,29.76,WNW,291,6.0,8.0,79,0.00,,SKC,0.00,VWS V14.01,2013-07-29 04:10:00,
2013-07-28 21:15:00,58.6,52.1,29.76,WNW,292,2.0,6.0,79,0.00,,SKC,0.00,VWS V14.01,2013-07-29 04:15:00,
2013-07-28 21:20:00,58.4,51.9,29.76,West,279,7.0,8.0,79,0.00,,SKC,0.00,VWS V14.01,2013-07-29 04:20:00,
2013-07-28 21:25:00,58.2,52.1,29.76,NW,321,0.0,7.0,80,0.00,,SKC,0.00,VWS V14.01,2013-07-29 04:25:00,
2013-07-28 21:30:00,58.1,52.0,29.76,West,265,4.0,6.0,80,0.00,,SKC,0.00,VWS V14.01,2013-07-29 04:30:00,
2013-07-28 21:35:00,57.9,51.8,29.77,WNW,284,4.0,5.0,80,0.00,,SKC,0.00,VWS V14.01,2013-07-29 04:35:00,
2013-07-28 21:40:00,57.8,52.0,29.77,NW,313,1.0,5.0,81,0.00,,SKC,0.00,VWS V14.01,2013-07-29 04:40:00,
2013-07-28 21:45:00,57.7,51.9,29.77,West,279,0.0,6.0,81,0.00,,SKC,0.00,VWS V14.01,2013-07-29 04:45:00,
2013-07-28 21:50:00,57.6,51.8,29.77,North,9,1.0,7.0,81,0.00,,SKC,0.00,VWS V14.01,2013-07-29 04:50:00,
2013-07-28 21:55:00,57.5,51.7,29.77,WNW,290,1.0,5.0,81,0.00,,SKC,0.00,VWS V14.01,2013-07-29 04:55:00,
2013-07-28 22:00:00,57.4,52.0,29.77,NW,326,2.0,5.0,82,0.00,,SKC,0.00,VWS V14.01,2013-07-29 05:00:00,
2013-07-28 22:05:00,57.2,51.8,29.76,NW,304,1.0,6.0,82,0.00,,SKC,0.00,VWS V14.01,2013-07-29 05:05:00,
2013-07-28 22:10:00,57.2,51.8,29.76,NW,319,2.0,4.0,82,0.00,,SKC,0.00,VWS V14.01,2013-07-29 05:10:00,
2013-07-28 22:15:00,57.1,52.0,29.76,WNW,294,0.0,5.0,83,0.00,,SKC,0.00,VWS V14.01,2013-07-29 05:15:00,
2013-07-28 22:20:00,57.1,52.0,29.76,NW,313,4.0,7.0,83,0.00,,SKC,0.00,VWS V14.01,2013-07-29 05:20:00,
2013-07-28 22:30:00,57.0,51.9,29.77,NW,304,0.0,7.0,83,0.00,,SKC,0.00,VWS V14.01,2013-07-29 05:30:00,
2013-07-28 22:35:00,56.9,51.8,29.77,NW,304,0.0,7.0,83,0.00,,SKC,0.00,VWS V14.01,2013-07-29 05:35:00,
2013-07-28 22:40:00,56.8,51.7,29.77,WNW,283,1.0,7.0,83,0.00,,SKC,0.00,VWS V14.01,2013-07-29 05:40:00,
2013-07-28 22:45:00,56.7,51.9,29.77,NNW,328,1.0,8.0,84,0.00,,SKC,0.00,VWS V14.01,2013-07-29 05:45:00,
2013-07-28 22:50:00,56.7,51.9,29.77,West,276,3.0,10.0,84,0.00,,SKC,0.00,VWS V14.01,2013-07-29 05:50:00,
2013-07-28 23:00:00,56.4,51.6,29.77,West,271,3.0,7.0,84,0.00,,SKC,0.00,VWS V14.01,2013-07-29 06:00:00,
2013-07-28 23:05:00,56.3,51.9,29.77,NW,306,6.0,10.0,85,0.00,,SKC,0.00,VWS V14.01,2013-07-29 06:05:00,
2013-07-28 23:10:00,56.2,51.8,29.77,WNW,284,1.0,9.0,85,0.00,,SKC,0.00,VWS V14.01,2013-07-29 06:10:00,
2013-07-28 23:15:00,56.1,51.7,29.77,West,265,2.0,9.0,85,0.00,,SKC,0.00,VWS V14.01,2013-07-29 06:15:00,
2013-07-28 23:20:00,56.0,51.6,29.77,NW,320,4.0,10.0,85,0.00,,SKC,0.00,VWS V14.01,2013-07-29 06:20:00,
2013-07-28 23:25:00,56.0,51.9,29.77,WNW,299,3.0,8.0,86,0.00,,SKC,0.00,VWS V14.01,2013-07-29 06:25:00,
2013-07-28 23:35:00,55.9,51.8,29.77,West,271,6.0,7.0,86,0.00,,SKC,0.00,VWS V14.01,2013-07-29 06:35:00,
2013-07-28 23:40:00,55.9,51.8,29.77,WNW,284,0.0,8.0,86,0.00,,SKC,0.00,VWS V14.01,2013-07-29 06:40:00,
2013-07-28 23:45:00,55.9,51.8,29.77,West,277,6.0,9.0,86,0.00,,SKC,0.00,VWS V14.01,2013-07-29 06:45:00,
2013-07-28 23:50:00,55.9,51.8,29.77,WNW,295,6.0,8.0,86,0.00,,SKC,0.00,VWS V14.01,2013-07-29 06:50:00,
2013-07-28 23:55:00,55.9,51.8,29.77,WNW,290,2.0,9.0,86,0.00,,SKC,0.00,VWS V14.01,2013-07-29 06:55:00,